Time;durP1;ratioP1;P1;durP2;ratioP2;P2;SDS_P1;SDS_P2;PMS_P1;PMS_P2;Temp;Humidity;BMP_temperature;BMP_pressure;BME280_temperature;BME280_humidity;BME280_pressure;Samples;Min_cycle;Max_cycle;Signal;HPM_P1;HPM_P2
2022/05/21 00:01:46;;;;;;;;;;;;;;;26.57;30.69;101091.41;5077146;28;885;-40
2022/05/21 00:04:12;;;;;;;;;;;;;;;26.56;31.11;101100.50;5077446;28;759;-39
2022/05/21 00:06:38;;;;;;;;;;;;;;;26.58;30.85;101103.88;5077065;28;1981;-40
2022/05/21 00:09:04;;;;;;;;;;;;;;;26.59;30.54;101110.13;5076221;28;782;-39
2022/05/21 00:11:29;;;;;;;;;;;;;;;26.52;30.74;101094.63;5076983;28;864;-40
2022/05/21 00:13:55;;;;;;;;;;;;;;;26.56;30.79;101096.97;5077095;28;785;-40
2022/05/21 00:16:20;;;;;;;;;;;;;;;26.52;30.63;101091.94;5076551;28;840;-41
2022/05/21 00:18:46;;;;;;;;;;;;;;;26.53;30.89;101080.13;5076573;28;869;-40
2022/05/21 00:21:12;;;;;;;;;;;;;;;26.51;30.66;101081.28;5076302;28;806;-39
2022/05/21 00:23:37;;;;;;;;;;;;;;;26.55;30.63;101076.38;5076473;28;868;-39
2022/05/21 00:26:06;;;;;;;;;;;;;;;26.55;30.65;101066.44;5076480;28;1901;-37
2022/05/21 00:28:32;;;;;;;;;;;;;;;26.51;30.26;101060.56;5076749;28;794;-40
2022/05/21 00:30:58;;;;;;;;;;;;;;;26.56;30.70;101060.03;5076391;28;975;-38
2022/05/21 00:33:23;;;;;;;;;;;;;;;26.53;30.91;101058.53;5076574;28;699;-38
2022/05/21 00:35:49;;;;;;;;;;;;;;;26.54;30.28;101048.59;5058156;28;935;-38
2022/05/21 00:38:14;;;;;;;;;;;;;;;26.56;30.67;101048.41;5058142;28;990;-39
2022/05/21 00:40:40;;;;;;;;;;;;;;;26.51;30.62;101044.38;5076507;28;904;-40
2022/05/21 00:43:05;;;;;;;;;;;;;;;26.56;30.80;101043.84;5076445;28;865;-41
2022/05/21 00:45:30;;;;;;;;;;;;;;;26.53;30.86;101047.75;5076357;28;1969;-39
2022/05/21 00:47:56;;;;;;;;;;;;;;;26.57;30.54;101055.50;5075656;28;931;-40
2022/05/21 00:50:22;;;;;;;;;;;;;;;26.51;30.33;101049.75;5077168;28;886;-39
2022/05/21 00:52:47;;;;;;;;;;;;;;;26.54;30.73;101043.19;5058731;28;825;-40
2022/05/21 00:55:14;;;;;;;;;;;;;;;26.53;30.63;101042.34;5076283;28;805;-40
2022/05/21 00:57:43;;;;;;;;;;;;;;;26.53;30.71;101031.56;5057977;28;870;-39
2022/05/21 01:00:12;;;;;;;;;;;;;;;26.50;30.81;101022.97;5057836;28;1052;-38
2022/05/21 01:02:56;;;;;;;;;;;;;;;26.52;30.75;101019.09;5075955;28;761;-37
2022/05/21 01:05:23;;;;;;;;;;;;;;;26.51;31.00;101030.03;5051645;28;1968;-41
2022/05/21 01:07:48;;;;;;;;;;;;;;;26.52;30.56;101021.78;5076687;28;749;-39
2022/05/21 01:10:14;;;;;;;;;;;;;;;26.55;30.40;101020.59;5057993;28;806;-39
2022/05/21 01:12:40;;;;;;;;;;;;;;;26.57;30.63;101026.66;5076042;28;841;-41
2022/05/21 01:15:08;;;;;;;;;;;;;;;26.58;30.97;101022.09;5057896;28;854;-39
2022/05/21 01:17:33;;;;;;;;;;;;;;;26.57;30.79;101021.25;5040694;28;1143;-39
2022/05/21 01:20:00;;;;;;;;;;;;;;;26.56;30.73;101016.03;5076441;28;825;-41
2022/05/21 01:22:29;;;;;;;;;;;;;;;26.53;30.71;101009.13;5075937;28;839;-40
2022/05/21 01:24:54;;;;;;;;;;;;;;;26.52;30.89;101008.31;5075564;28;1954;-39
2022/05/21 01:27:20;;;;;;;;;;;;;;;26.55;30.92;101014.34;5075954;28;1046;-38
2022/05/21 01:29:46;;;;;;;;;;;;;;;26.51;30.74;100995.81;5075924;28;809;-41
2022/05/21 01:32:14;;;;;;;;;;;;;;;26.58;30.72;100995.09;5056751;28;1393;-42
2022/05/21 01:34:40;;;;;;;;;;;;;;;26.56;30.61;100987.19;5079360;28;909;-39
2022/05/21 01:37:05;;;;;;;;;;;;;;;26.56;30.87;100991.75;5080140;28;873;-38
2022/05/21 01:39:30;;;;;;;;;;;;;;;26.60;30.71;100993.94;5061065;28;757;-39
2022/05/21 01:41:55;;;;;;;;;;;;;;;26.54;31.00;100997.34;5080279;28;831;-40
2022/05/21 01:44:39;;;;;;;;;;;;;;;26.59;30.71;100994.13;5079580;28;906;-38
2022/05/21 01:47:05;;;;;;;;;;;;;;;26.53;30.94;100998.31;5079539;28;858;-38
2022/05/21 01:49:30;;;;;;;;;;;;;;;26.56;31.06;100991.75;5079556;28;834;-41
2022/05/21 01:51:56;;;;;;;;;;;;;;;26.58;30.87;100990.56;5079267;28;810;-41
2022/05/21 01:54:21;;;;;;;;;;;;;;;26.59;30.78;100980.63;5079833;28;1530;-41
2022/05/21 01:56:46;;;;;;;;;;;;;;;26.56;30.79;100976.41;5079850;28;941;-39
2022/05/21 01:59:12;;;;;;;;;;;;;;;26.59;30.80;100978.75;5079567;28;897;-38
2022/05/21 02:01:37;;;;;;;;;;;;;;;26.61;30.68;100978.59;5079668;28;843;-38
2022/05/21 02:04:02;;;;;;;;;;;;;;;26.60;30.67;100972.34;5079191;28;880;-37
2022/05/21 02:06:28;;;;;;;;;;;;;;;26.60;31.02;100972.34;5079471;28;1906;-39
2022/05/21 02:08:53;;;;;;;;;;;;;;;26.64;31.08;100972.84;5079279;28;782;-39
2022/05/21 02:11:18;;;;;;;;;;;;;;;26.63;30.90;100971.16;5079324;28;801;-38
2022/05/21 02:13:44;;;;;;;;;;;;;;;26.60;31.10;100975.06;5079617;28;783;-38
2022/05/21 02:16:09;;;;;;;;;;;;;;;26.59;30.90;100976.03;5078509;28;887;-42
2022/05/21 02:18:34;;;;;;;;;;;;;;;26.58;31.04;100970.81;5079219;28;837;-38
2022/05/21 02:21:00;;;;;;;;;;;;;;;26.57;30.85;100967.31;5079319;28;839;-39
2022/05/21 02:23:25;;;;;;;;;;;;;;;26.59;31.04;100967.13;5079333;28;813;-38
2022/05/21 02:25:51;;;;;;;;;;;;;;;26.58;30.74;100968.97;5078532;28;1893;-39
2022/05/21 02:28:16;;;;;;;;;;;;;;;26.58;31.01;100960.88;5077887;28;1487;-40
2022/05/21 02:30:41;;;;;;;;;;;;;;;26.56;30.69;100962.09;5076794;28;933;-40
2022/05/21 02:33:07;;;;;;;;;;;;;;;26.52;30.64;100959.75;5077872;28;847;-39
2022/05/21 02:35:32;;;;;;;;;;;;;;;26.56;30.82;100957.50;5077712;28;853;-40
2022/05/21 02:40:41;;;;;;;;;;;;;;;26.51;31.05;100962.59;5073315;28;703;-43
2022/05/21 02:43:06;;;;;;;;;;;;;;;26.51;30.82;100968.84;5077168;28;810;-42
2022/05/21 02:45:32;;;;;;;;;;;;;;;26.56;30.75;100965.59;5077048;28;1901;-40
2022/05/21 02:47:57;;;;;;;;;;;;;;;26.56;30.61;100968.31;5077816;28;927;-40
2022/05/21 02:50:28;;;;;;;;;;;;;;;26.56;30.80;100967.47;5077717;28;864;-40
2022/05/21 02:52:53;;;;;;;;;;;;;;;26.56;30.54;100964.78;5077507;28;830;-40
2022/05/21 02:55:19;;;;;;;;;;;;;;;26.54;30.55;100962.25;5076738;28;789;-39
2022/05/21 02:57:44;;;;;;;;;;;;;;;26.55;30.76;100961.22;5077698;28;846;-41
2022/05/21 03:00:11;;;;;;;;;;;;;;;26.55;30.88;100963.09;5076626;28;901;-40
2022/05/21 03:02:36;;;;;;;;;;;;;;;26.56;30.34;100964.78;5074947;28;876;-45
2022/05/21 03:05:03;;;;;;;;;;;;;;;25.86;31.32;100951.75;5077430;28;1947;-46
2022/05/21 03:07:29;;;;;;;;;;;;;;;25.43;31.55;100956.25;5075090;28;1487;-46
2022/05/21 03:12:38;;;;;;;;;;;;;;;25.36;32.79;100965.16;5072917;28;1139;-45
2022/05/21 03:15:04;;;;;;;;;;;;;;;24.62;33.79;100961.19;5077057;28;816;-47
2022/05/21 03:17:30;;;;;;;;;;;;;;;24.67;33.45;100967.75;5075687;28;1435;-46
2022/05/21 03:19:55;;;;;;;;;;;;;;;23.99;34.35;100958.63;5076272;28;1216;-47
2022/05/21 03:22:20;;;;;;;;;;;;;;;24.03;34.28;100960.81;5076626;28;799;-50
2022/05/21 03:24:45;;;;;;;;;;;;;;;24.00;34.35;100955.78;5076365;28;1940;-49
2022/05/21 03:27:11;;;;;;;;;;;;;;;23.97;34.28;100956.09;5035151;28;1200089;-48
2022/05/21 03:29:37;;;;;;;;;;;;;;;23.66;35.05;100957.34;5073530;28;1171;-50
2022/05/21 03:32:02;;;;;;;;;;;;;;;23.69;35.08;100954.34;5077600;28;871;-48
2022/05/21 03:34:28;;;;;;;;;;;;;;;23.44;35.61;100948.75;5077710;28;880;-50
2022/05/21 03:36:53;;;;;;;;;;;;;;;23.73;34.45;100945.00;5077643;28;794;-51
2022/05/21 03:39:19;;;;;;;;;;;;;;;23.78;34.30;100949.03;5078141;28;758;-50
2022/05/21 03:41:44;;;;;;;;;;;;;;;23.55;34.82;100946.84;5077304;28;1009;-49
2022/05/21 03:44:09;;;;;;;;;;;;;;;23.08;35.67;100948.69;5075550;28;1120;-50
2022/05/21 03:46:38;;;;;;;;;;;;;;;23.09;35.69;100945.84;5077158;28;1984;-48
2022/05/21 03:49:04;;;;;;;;;;;;;;;22.98;36.26;100956.78;5072229;28;1128;-47
2022/05/21 03:51:29;;;;;;;;;;;;;;;23.00;36.59;100947.59;5075142;28;1127;-46
2022/05/21 03:53:54;;;;;;;;;;;;;;;23.15;36.39;100951.63;5077443;28;853;-47
2022/05/21 03:56:19;;;;;;;;;;;;;;;23.19;36.57;100950.34;5074873;28;1460;-51
2022/05/21 03:58:45;;;;;;;;;;;;;;;23.30;36.57;100950.09;5076701;28;854;-46
2022/05/21 04:01:10;;;;;;;;;;;;;;;23.09;36.84;100945.00;5077171;28;1225;-51
2022/05/21 04:03:35;;;;;;;;;;;;;;;22.92;37.40;100949.34;5077298;28;765;-47
2022/05/21 04:06:01;;;;;;;;;;;;;;;23.32;36.76;100949.94;5077222;28;1893;-48
2022/05/21 04:08:26;;;;;;;;;;;;;;;24.02;35.12;100951.09;5076284;28;795;-45
2022/05/21 04:10:52;;;;;;;;;;;;;;;24.56;34.41;100958.16;5076747;28;777;-47
2022/05/21 04:13:17;;;;;;;;;;;;;;;24.84;33.92;100951.69;5076430;28;1103;-45
2022/05/21 04:15:42;;;;;;;;;;;;;;;24.97;33.59;100958.50;5076711;28;871;-47
2022/05/21 04:18:08;;;;;;;;;;;;;;;25.04;33.46;100952.28;5077328;28;902;-47
2022/05/21 04:20:33;;;;;;;;;;;;;;;25.03;33.47;100953.31;5076963;28;900;-45
2022/05/21 04:22:58;;;;;;;;;;;;;;;25.14;33.64;100954.03;5076913;28;944;-45
2022/05/21 04:25:24;;;;;;;;;;;;;;;25.02;33.95;100954.31;5076421;28;1969;-46
2022/05/21 04:27:50;;;;;;;;;;;;;;;25.14;33.60;100957.53;5076546;28;809;-46
2022/05/21 04:30:17;;;;;;;;;;;;;;;25.16;33.91;100958.22;5076578;28;887;-47
2022/05/21 04:32:45;;;;;;;;;;;;;;;25.24;34.06;100954.69;5059147;28;803;-46
2022/05/21 04:35:10;;;;;;;;;;;;;;;25.22;34.16;100963.94;5076129;28;1104;-45
2022/05/21 04:37:36;;;;;;;;;;;;;;;25.27;34.34;100962.47;5075843;28;1231;-45
2022/05/21 04:40:02;;;;;;;;;;;;;;;25.28;34.52;100958.75;5075999;28;1210;-46
2022/05/21 04:42:28;;;;;;;;;;;;;;;25.36;34.45;100959.78;5076067;28;1273;-44
2022/05/21 04:44:53;;;;;;;;;;;;;;;25.32;34.54;100956.56;5075666;28;1906;-44
2022/05/21 04:47:18;;;;;;;;;;;;;;;25.35;34.61;100956.25;5076039;28;1092;-43
2022/05/21 04:49:43;;;;;;;;;;;;;;;25.40;34.52;100944.97;5075964;28;1064;-47
2022/05/21 04:52:09;;;;;;;;;;;;;;;25.37;34.63;100950.69;5075873;28;1222;-45
2022/05/21 04:54:35;;;;;;;;;;;;;;;25.40;34.61;100945.81;5075943;28;1036;-44
2022/05/21 04:57:00;;;;;;;;;;;;;;;25.52;34.24;100950.88;5076021;28;1044;-44
2022/05/21 04:59:26;;;;;;;;;;;;;;;25.47;34.44;100956.78;5075512;28;1223;-45
2022/05/21 05:01:51;;;;;;;;;;;;;;;25.45;34.71;100953.38;5075351;28;1342;-45
2022/05/21 05:04:16;;;;;;;;;;;;;;;25.52;34.65;100942.78;5075816;28;1013;-45
2022/05/21 05:06:41;;;;;;;;;;;;;;;25.54;34.38;100944.28;5075714;28;1905;-44
2022/05/21 05:09:07;;;;;;;;;;;;;;;25.54;34.66;100947.00;5075888;28;1215;-45
2022/05/21 05:11:32;;;;;;;;;;;;;;;25.68;34.39;100947.38;5075761;28;1195;-44
2022/05/21 05:13:58;;;;;;;;;;;;;;;25.63;34.43;100938.94;5075574;28;1227;-45
2022/05/21 05:16:23;;;;;;;;;;;;;;;25.59;34.34;100942.97;5074859;28;1076;-46
2022/05/21 05:18:48;;;;;;;;;;;;;;;25.69;34.18;100940.97;5075889;28;1250;-45
2022/05/21 05:21:14;;;;;;;;;;;;;;;25.69;34.54;100940.97;5075805;28;1251;-45
2022/05/21 05:23:39;;;;;;;;;;;;;;;25.76;34.74;100941.97;5075612;28;1207;-46
2022/05/21 05:26:04;;;;;;;;;;;;;;;25.77;34.19;100943.69;5075639;28;1897;-43
2022/05/21 05:28:30;;;;;;;;;;;;;;;25.75;34.40;100958.31;5075018;28;1301;-45
2022/05/21 05:30:55;;;;;;;;;;;;;;;25.88;34.03;100953.25;5075748;28;886;-44
2022/05/21 05:33:21;;;;;;;;;;;;;;;25.83;34.65;100957.47;5075315;28;1072;-44
2022/05/21 05:35:48;;;;;;;;;;;;;;;25.89;34.81;100963.00;5075503;28;1131;-43
2022/05/21 05:38:14;;;;;;;;;;;;;;;25.87;34.27;100959.66;5075486;28;1243;-43
2022/05/21 05:40:40;;;;;;;;;;;;;;;25.83;34.63;100954.75;5074837;28;1239;-44
2022/05/21 05:43:05;;;;;;;;;;;;;;;25.83;34.45;100954.75;5073460;28;1021;-44
2022/05/21 05:45:30;;;;;;;;;;;;;;;25.85;34.47;100944.66;5075179;28;1906;-43
2022/05/21 05:47:56;;;;;;;;;;;;;;;25.83;34.71;100949.38;5075598;28;1049;-43
2022/05/21 05:50:21;;;;;;;;;;;;;;;25.85;34.31;100945.50;5075166;28;1107;-42
2022/05/21 05:52:47;;;;;;;;;;;;;;;25.94;34.27;100937.41;5074988;28;1147;-44
2022/05/21 05:55:12;;;;;;;;;;;;;;;25.96;32.17;100938.09;5075300;28;1321;-44
2022/05/21 05:57:37;;;;;;;;;;;;;;;25.72;30.53;100937.09;5075980;28;739;-43
2022/05/21 06:00:03;;;;;;;;;;;;;;;25.54;30.30;100938.09;5075264;28;838;-43
2022/05/21 06:05:16;;;;;;;;;;;;;;;25.92;31.96;100938.41;5075115;28;1971;-50
2022/05/21 06:07:45;;;;;;;;;;;;;;;25.98;32.39;100939.59;5069215;28;841;-44
2022/05/21 06:10:11;;;;;;;;;;;;;;;26.07;32.47;100937.75;5069395;28;798;-45
2022/05/21 06:12:37;;;;;;;;;;;;;;;26.12;32.77;100939.91;5074690;28;1402;-43
2022/05/21 06:15:02;;;;;;;;;;;;;;;26.16;32.62;100933.16;5075275;28;886;-48
2022/05/21 06:17:28;;;;;;;;;;;;;;;26.20;32.60;100933.66;5075893;28;778;-45
2022/05/21 06:19:53;;;;;;;;;;;;;;;26.20;32.88;100928.25;5076777;28;1036;-46
2022/05/21 06:22:18;;;;;;;;;;;;;;;26.25;32.95;100926.75;5079077;28;950;-47
2022/05/21 06:24:44;;;;;;;;;;;;;;;26.24;32.72;100921.53;5078965;28;1886;-48
2022/05/21 06:27:09;;;;;;;;;;;;;;;26.37;32.85;100919.16;5079137;28;1055;-46
2022/05/21 06:29:37;;;;;;;;;;;;;;;26.41;32.71;100911.53;5078978;28;801;-47
2022/05/21 06:32:05;;;;;;;;;;;;;;;26.40;32.83;100921.50;5078301;28;890;-48
2022/05/21 06:34:31;;;;;;;;;;;;;;;26.59;32.93;100914.00;5078440;28;906;-50
2022/05/21 06:36:56;;;;;;;;;;;;;;;26.67;32.96;100917.69;5078614;28;759;-48
2022/05/21 06:39:21;;;;;;;;;;;;;;;26.73;32.63;100916.97;5079134;28;770;-44
2022/05/21 06:41:47;;;;;;;;;;;;;;;26.73;32.51;100916.97;5078901;28;726;-51
2022/05/21 06:44:12;;;;;;;;;;;;;;;26.72;32.58;100916.16;5078314;28;730;-42
2022/05/21 06:46:37;;;;;;;;;;;;;;;26.72;32.85;100907.19;5078361;28;2014;-46
2022/05/21 06:49:03;;;;;;;;;;;;;;;26.71;32.94;100909.06;5078807;28;805;-44
2022/05/21 06:51:28;;;;;;;;;;;;;;;26.68;32.81;100905.84;5078828;28;738;-46
2022/05/21 06:53:53;;;;;;;;;;;;;;;26.68;32.59;100901.31;5078734;28;876;-44
2022/05/21 06:56:19;;;;;;;;;;;;;;;26.71;32.46;100900.13;5078054;28;1518;-45
2022/05/21 06:58:44;;;;;;;;;;;;;;;26.86;32.60;100902.91;5078282;28;842;-40
2022/05/21 07:01:09;;;;;;;;;;;;;;;26.84;32.44;100897.69;5060450;28;899;-39
2022/05/21 07:03:35;;;;;;;;;;;;;;;26.79;32.92;100894.69;5077955;28;1080;-40
2022/05/21 07:08:44;;;;;;;;;;;;;;;26.73;33.13;100882.75;5078127;28;741;-44
2022/05/21 07:11:09;;;;;;;;;;;;;;;26.83;32.91;100874.41;5078375;28;787;-44
2022/05/21 07:13:35;;;;;;;;;;;;;;;26.87;33.17;100875.75;5078285;28;762;-42
2022/05/21 07:16:00;;;;;;;;;;;;;;;26.71;31.62;100876.66;5077679;28;858;-44
2022/05/21 07:18:27;;;;;;;;;;;;;;;26.63;32.15;100869.47;5059418;28;1004;-41
2022/05/21 07:20:52;;;;;;;;;;;;;;;26.67;31.90;100869.09;5078156;28;849;-43
2022/05/21 07:23:18;;;;;;;;;;;;;;;26.77;32.54;100869.72;5077702;28;896;-41
2022/05/21 07:25:44;;;;;;;;;;;;;;;26.78;32.83;100860.59;5077373;28;1905;-39
2022/05/21 07:28:09;;;;;;;;;;;;;;;26.98;32.56;100858.28;5076670;28;972;-40
2022/05/21 07:30:35;;;;;;;;;;;;;;;26.97;32.79;100853.94;5076100;28;921;-39
2022/05/21 07:33:00;;;;;;;;;;;;;;;26.87;32.36;100847.91;5077844;28;777;-46
2022/05/21 07:35:26;;;;;;;;;;;;;;;26.89;32.16;100852.09;5074504;28;1193;-43
2022/05/21 07:37:51;;;;;;;;;;;;;;;26.77;32.16;100853.53;5075424;28;1176;-46
2022/05/21 07:40:17;;;;;;;;;;;;;;;26.81;32.10;100843.22;5076200;28;797;-49
2022/05/21 07:42:43;;;;;;;;;;;;;;;26.79;32.00;100846.13;5076715;28;837;-43
2022/05/21 07:45:08;;;;;;;;;;;;;;;26.86;32.12;100846.25;5067183;28;1901;-45
2022/05/21 07:47:34;;;;;;;;;;;;;;;26.83;32.32;100850.13;5076447;28;866;-44
2022/05/21 07:49:59;;;;;;;;;;;;;;;26.86;32.14;100848.94;5077309;28;826;-43
2022/05/21 07:52:25;;;;;;;;;;;;;;;26.88;32.48;100838.78;5077308;28;904;-42
2022/05/21 07:54:51;;;;;;;;;;;;;;;26.86;32.60;100838.16;5077734;28;737;-42
2022/05/21 07:57:16;;;;;;;;;;;;;;;26.88;32.44;100828.84;5076685;28;906;-44
2022/05/21 07:59:41;;;;;;;;;;;;;;;26.87;32.13;100820.91;5076995;28;846;-42
2022/05/21 08:02:08;;;;;;;;;;;;;;;26.93;32.42;100820.19;5077010;28;1030;-45
2022/05/21 08:04:37;;;;;;;;;;;;;;;26.97;32.22;100817.97;5059313;28;1117;-46
2022/05/21 08:07:02;;;;;;;;;;;;;;;26.94;32.52;100812.94;5076555;28;1902;-43
2022/05/21 08:09:27;;;;;;;;;;;;;;;26.96;32.62;100813.63;5077152;28;767;-45
2022/05/21 08:11:54;;;;;;;;;;;;;;;26.96;32.32;100817.13;5075567;28;861;-44
2022/05/21 08:14:20;;;;;;;;;;;;;;;27.19;31.91;100819.03;5073552;28;894;-43
2022/05/21 08:16:45;;;;;;;;;;;;;;;27.12;32.32;100818.06;5075874;28;1219;-42
2022/05/21 08:19:12;;;;;;;;;;;;;;;27.12;32.02;100808.13;5075807;28;1108;-42
2022/05/21 08:21:37;;;;;;;;;;;;;;;27.06;32.48;100810.69;5075844;28;1235;-42
2022/05/21 08:26:56;;;;;;;;;;;;;;;27.10;32.18;100801.19;5072983;28;1871;-43
2022/05/21 08:29:21;;;;;;;;;;;;;;;27.14;32.35;100800.66;5076803;28;789;-44
2022/05/21 08:31:47;;;;;;;;;;;;;;;27.10;32.04;100795.78;5076872;28;1076;-43
2022/05/21 08:34:12;;;;;;;;;;;;;;;27.16;31.88;100791.53;5076632;28;893;-42
2022/05/21 08:36:38;;;;;;;;;;;;;;;27.18;32.00;100798.44;5076004;28;815;-42
2022/05/21 08:39:03;;;;;;;;;;;;;;;27.23;32.22;100801.41;5075388;28;1022;-42
2022/05/21 08:41:30;;;;;;;;;;;;;;;27.25;32.12;100801.25;5076019;28;881;-40
2022/05/21 08:43:55;;;;;;;;;;;;;;;27.29;31.90;100805.25;5074666;28;1247;-41
2022/05/21 08:46:26;;;;;;;;;;;;;;;27.25;32.10;100799.38;5075443;28;1910;-41
2022/05/21 08:49:02;;;;;;;;;;;;;;;27.25;32.06;100793.13;5074959;28;1250;-42
2022/05/21 08:51:28;;;;;;;;;;;;;;;27.18;32.24;100784.94;5074012;28;930;-43
2022/05/21 08:53:54;;;;;;;;;;;;;;;27.14;32.50;100786.31;5076106;28;1080;-44
2022/05/21 08:56:19;;;;;;;;;;;;;;;27.22;32.16;100783.56;5076004;28;969;-43
2022/05/21 08:58:48;;;;;;;;;;;;;;;27.23;32.06;100777.13;5058754;28;830;-46
2022/05/21 09:01:18;;;;;;;;;;;;;;;27.20;32.00;100773.94;5069342;28;924;-42
2022/05/21 09:03:44;;;;;;;;;;;;;;;27.26;32.12;100774.03;5075388;28;778;-42
2022/05/21 09:06:18;;;;;;;;;;;;;;;27.26;31.99;100767.78;5076346;28;1960;-43
2022/05/21 09:08:50;;;;;;;;;;;;;;;27.21;31.73;100770.22;5075817;28;913;-43
2022/05/21 09:11:22;;;;;;;;;;;;;;;27.27;31.96;100761.38;5074087;28;824;-42
2022/05/21 09:13:48;;;;;;;;;;;;;;;27.28;32.08;100764.94;5076245;28;804;-44
2022/05/21 09:18:58;;;;;;;;;;;;;;;27.29;31.63;100759.34;5071139;28;663;-44
2022/05/21 09:21:25;;;;;;;;;;;;;;;27.35;31.49;100765.88;5076339;28;815;-44
2022/05/21 09:23:53;;;;;;;;;;;;;;;27.31;31.44;100754.59;5075813;28;841;-44
2022/05/21 09:26:25;;;;;;;;;;;;;;;27.22;31.64;100756.53;5073742;28;1901;-42
2022/05/21 09:28:51;;;;;;;;;;;;;;;27.31;31.21;100751.06;5056389;28;1372;-44
2022/05/21 09:31:28;;;;;;;;;;;;;;;27.31;31.51;100751.06;5074601;28;1290;-48
2022/05/21 09:33:55;;;;;;;;;;;;;;;27.33;31.20;100743.59;5076083;28;817;-44
2022/05/21 09:36:33;;;;;;;;;;;;;;;27.33;31.42;100740.88;5072120;28;856;-45
2022/05/21 09:38:59;;;;;;;;;;;;;;;27.34;31.56;100732.59;5075264;28;1124;-44
2022/05/21 09:41:27;;;;;;;;;;;;;;;27.30;31.46;100734.00;5075627;28;755;-40
2022/05/21 09:46:46;;;;;;;;;;;;;;;27.30;31.36;100734.00;5055799;28;1906;-43
2022/05/21 09:49:14;;;;;;;;;;;;;;;27.28;31.56;100732.53;5073688;28;990;-42
2022/05/21 09:51:40;;;;;;;;;;;;;;;27.29;31.10;100724.25;5075623;28;936;-40
2022/05/21 09:54:18;;;;;;;;;;;;;;;26.77;31.16;100633.09;5057747;28;1419;-41
2022/05/21 09:56:47;;;;;;;;;;;;;;;27.24;31.69;100724.78;5079797;28;830;-41
2022/05/21 09:59:14;;;;;;;;;;;;;;;27.30;31.48;100717.81;5079185;28;822;-45
2022/05/21 10:01:40;;;;;;;;;;;;;;;27.48;31.67;100716.59;5079461;28;870;-43
2022/05/21 10:04:13;;;;;;;;;;;;;;;27.42;31.69;100704.69;5079339;28;802;-42
2022/05/21 10:06:40;;;;;;;;;;;;;;;27.46;31.50;100710.56;5079737;28;1909;-44
2022/05/21 10:12:25;;;;;;;;;;;;;;;27.42;31.71;100704.69;5013141;28;1207;-44
2022/05/21 10:15:20;;;;;;;;;;;;;;;27.49;31.25;100705.59;5017576;28;738;-45
2022/05/21 10:17:47;;;;;;;;;;;;;;;27.60;31.42;100698.06;5046438;28;1211;-44
2022/05/21 10:20:12;;;;;;;;;;;;;;;27.53;31.49;100695.25;5059997;28;993;-42
2022/05/21 10:22:58;;;;;;;;;;;;;;;27.52;31.54;100693.59;5078958;28;1125;-45
2022/05/21 10:25:24;;;;;;;;;;;;;;;27.56;31.26;100696.75;5059109;28;1957;-43
2022/05/21 10:28:08;;;;;;;;;;;;;;;27.63;30.83;100694.97;5059308;28;1255;-44
2022/05/21 10:30:55;;;;;;;;;;;;;;;27.75;31.09;100706.19;5078452;28;871;-43
2022/05/21 10:33:26;;;;;;;;;;;;;;;27.87;30.83;100699.28;5078118;28;982;-43
2022/05/21 10:35:59;;;;;;;;;;;;;;;27.91;30.37;100702.41;5077830;28;1262;-45
2022/05/21 10:38:24;;;;;;;;;;;;;;;27.92;30.41;100690.59;5056947;28;1172;-41
2022/05/21 10:40:58;;;;;;;;;;;;;;;27.96;30.24;100694.56;5076944;28;981;-45
2022/05/21 10:43:27;;;;;;;;;;;;;;;27.99;30.22;100682.56;5040675;28;1272;-43
2022/05/21 10:46:01;;;;;;;;;;;;;;;27.94;30.44;100685.00;5077431;28;1978;-42
2022/05/21 10:48:29;;;;;;;;;;;;;;;28.05;29.95;100679.09;5058562;28;1244;-42
2022/05/21 10:50:54;;;;;;;;;;;;;;;27.99;30.49;100672.56;5077797;28;1487;-46
2022/05/21 10:53:30;;;;;;;;;;;;;;;28.01;30.15;100672.38;5077882;28;1254;-43
2022/05/21 10:55:59;;;;;;;;;;;;;;;28.13;30.29;100678.13;5055548;28;1578;-42
2022/05/21 10:58:34;;;;;;;;;;;;;;;28.11;30.24;100667.50;5060318;28;769;-41
2022/05/21 11:01:05;;;;;;;;;;;;;;;28.23;29.92;100675.09;5077788;28;887;-42
2022/05/21 11:03:34;;;;;;;;;;;;;;;28.09;30.38;100664.13;5060425;28;884;-43
2022/05/21 11:06:13;;;;;;;;;;;;;;;28.17;30.20;100663.19;5060721;28;1957;-42
2022/05/21 11:08:42;;;;;;;;;;;;;;;28.19;30.07;100673.81;5056534;28;922;-45
2022/05/21 11:11:26;;;;;;;;;;;;;;;28.20;29.92;100668.22;5055649;28;880;-42
2022/05/21 11:14:08;;;;;;;;;;;;;;;28.15;29.92;100659.00;5074519;28;807;-44
2022/05/21 11:16:35;;;;;;;;;;;;;;;28.17;30.10;100665.91;5059729;28;765;-45
2022/05/21 11:19:20;;;;;;;;;;;;;;;28.29;29.74;100666.22;5077354;28;1073;-44
2022/05/21 11:21:51;;;;;;;;;;;;;;;28.30;30.15;100662.47;5076536;28;1223;-41
2022/05/21 11:24:30;;;;;;;;;;;;;;;28.15;30.06;100659.84;5059300;28;1349;-42
2022/05/21 11:27:00;;;;;;;;;;;;;;;28.13;30.09;100661.06;5073436;28;1901;-42
2022/05/21 11:29:35;;;;;;;;;;;;;;;28.18;30.16;100651.34;5077633;28;1250;-43
2022/05/21 11:37:43;;;;;;;;;;;;;;;28.26;30.08;100639.53;5059323;28;1010;-43
2022/05/21 11:40:09;;;;;;;;;;;;;;;28.21;30.13;100637.41;5078222;28;850;-43
2022/05/21 11:42:34;;;;;;;;;;;;;;;28.51;29.79;100632.94;5077998;28;861;-42
2022/05/21 11:45:09;;;;;;;;;;;;;;;28.38;30.43;100625.56;5077223;28;1898;-43
2022/05/21 11:47:46;;;;;;;;;;;;;;;28.30;30.15;100629.19;5077429;28;819;-42
2022/05/21 11:50:12;;;;;;;;;;;;;;;28.39;29.08;100622.66;5076471;28;998;-42
2022/05/21 11:52:38;;;;;;;;;;;;;;;28.69;28.77;100614.34;5076661;28;1282;-43
2022/05/21 11:55:14;;;;;;;;;;;;;;;28.66;30.09;100605.78;5076151;28;1179;-41
2022/05/21 11:57:42;;;;;;;;;;;;;;;28.52;29.17;100600.28;5076682;28;1231;-42
2022/05/21 12:00:08;;;;;;;;;;;;;;;28.54;29.06;100602.78;5076299;28;1090;-41
2022/05/21 12:02:34;;;;;;;;;;;;;;;28.49;29.41;100606.06;5076252;28;1243;-42
2022/05/21 12:05:05;;;;;;;;;;;;;;;28.65;28.53;100594.13;5058416;28;1898;-45
2022/05/21 12:07:46;;;;;;;;;;;;;;;28.48;29.25;100588.16;5076978;28;1250;-44
2022/05/21 12:10:44;;;;;;;;;;;;;;;28.29;29.69;100589.66;5071125;28;886;-45
2022/05/21 12:13:12;;;;;;;;;;;;;;;28.27;29.78;100592.53;5021489;28;1250;-44
2022/05/21 12:15:44;;;;;;;;;;;;;;;28.28;29.74;100582.56;5076113;28;813;-42
2022/05/21 12:18:28;;;;;;;;;;;;;;;28.27;30.36;100581.72;5076425;28;892;-45
2022/05/21 12:20:53;;;;;;;;;;;;;;;28.19;30.44;100577.31;5071117;28;750;-47
2022/05/21 12:23:34;;;;;;;;;;;;;;;28.47;30.42;100570.25;5076929;28;1352;-47
2022/05/21 12:26:18;;;;;;;;;;;;;;;28.26;31.15;100568.41;5076341;28;1894;-46
2022/05/21 12:28:51;;;;;;;;;;;;;;;28.41;30.32;100566.44;5059009;28;1056;-48
2022/05/21 12:31:21;;;;;;;;;;;;;;;28.43;30.26;100558.97;5059130;28;887;-48
2022/05/21 12:33:51;;;;;;;;;;;;;;;28.46;30.74;100547.75;5077012;28;809;-45
2022/05/21 12:36:50;;;;;;;;;;;;;;;28.51;30.10;100549.06;5076521;28;822;-45
2022/05/21 12:39:16;;;;;;;;;;;;;;;28.69;29.57;100552.09;5020032;28;997;-46
2022/05/21 12:41:43;;;;;;;;;;;;;;;28.85;29.80;100547.38;5058490;28;821;-48
2022/05/21 12:44:09;;;;;;;;;;;;;;;28.46;28.83;100545.06;5076343;28;837;-49
2022/05/21 12:46:35;;;;;;;;;;;;;;;28.58;29.55;100541.81;5076232;28;1977;-48
2022/05/21 12:49:08;;;;;;;;;;;;;;;28.66;30.21;100521.88;5076374;28;845;-50
2022/05/21 12:51:35;;;;;;;;;;;;;;;28.68;30.38;100522.50;5076398;28;795;-48
2022/05/21 12:54:02;;;;;;;;;;;;;;;28.60;30.28;100527.06;5057450;28;861;-48
2022/05/21 12:56:34;;;;;;;;;;;;;;;28.67;30.05;100518.13;5076791;28;734;-48
2022/05/21 12:59:20;;;;;;;;;;;;;;;28.56;30.30;100525.75;5076443;28;842;-47
2022/05/21 13:02:14;;;;;;;;;;;;;;;28.63;30.36;100527.69;5058025;28;1542;-47
2022/05/21 13:04:41;;;;;;;;;;;;;;;28.73;30.49;100526.28;5052034;28;1263;-50
2022/05/21 13:07:06;;;;;;;;;;;;;;;28.23;31.01;100513.66;5075707;28;1967;-48
2022/05/21 13:09:35;;;;;;;;;;;;;;;27.98;32.49;100515.94;5076574;28;757;-48
2022/05/21 13:12:02;;;;;;;;;;;;;;;28.55;31.50;100513.28;5057468;28;877;-43
2022/05/21 13:14:30;;;;;;;;;;;;;;;28.53;31.39;100509.94;5075733;28;841;-45
2022/05/21 13:16:57;;;;;;;;;;;;;;;28.65;30.83;100501.25;5057599;28;978;-46
2022/05/21 13:19:28;;;;;;;;;;;;;;;28.58;31.04;100491.22;5076120;28;785;-42
2022/05/21 13:21:56;;;;;;;;;;;;;;;28.60;31.18;100485.63;5075853;28;750;-42
2022/05/21 13:24:42;;;;;;;;;;;;;;;28.50;31.21;100485.97;5057984;28;967;-42